»·PEaware :: N9875 KEGE-KAPA

N9875 :: KEGE-KAPA

FLIGHT INFORMATION

Flight Status: Arrived
Operator: Privately registered:
United States
More flights under this callsign
Pilot: Alex C. (14758)
Aircraft: PILATUS PC-12 EAGLE
(PC12)
More flights by this aircraft type
Origin: KEGE Eagle Co Regl
United States
Destination: KAPA Centennial
United States
More flights between these airports :: More routes between these airports
Route: +GYPMS5 RLG TOMSN6
File this flight plan on PilotEdge
Remarks:
Altitude:
(Current/Filed)
17,000ft
Speed:
(Current/Filed)
250kts
Departed: 13-Oct-18 09:41 PM
Arrived: 13-Oct-18 10:19 PM
Distance/Time
Traveled:
96nm/0:38
Distance/Time
To Go:
Arrived

Flight Plot

Page will automatically refresh every two minutes.

Flight plan parsing failed; only flown route is shown


Map Options




Map Legend


Flown Route
Filed Route
Departure Airport
Arrival Airport
Navaid (VOR, NDB)
Fix

Horizontal Profiles

Position Reports

Time Latitude Longitude Heading Altitude Ground
Speed
13-Oct-18 21:27 39.641197 -106.910037 262 6549ft 0kts
13-Oct-18 21:28 39.641197 -106.910037 262 6549ft 0kts
13-Oct-18 21:29 39.641197 -106.910037 262 6549ft 0kts
13-Oct-18 21:30 39.641197 -106.910037 262 6549ft 0kts
13-Oct-18 21:31 39.641197 -106.910037 262 6549ft 0kts
13-Oct-18 21:35 39.641197 -106.910037 262 6549ft 0kts
13-Oct-18 21:36 39.641197 -106.910037 262 6549ft 0kts
13-Oct-18 21:37 39.641197 -106.910037 262 6549ft 0kts
13-Oct-18 21:38 39.641197 -106.910037 262 6549ft 0kts
13-Oct-18 21:39 39.641472 -106.910233 62 6549ft 9kts
13-Oct-18 21:40 39.642845 -106.905522 83 6549ft 20kts
13-Oct-18 21:41 39.643386 -106.901877 16 6549ft 0kts
13-Oct-18 21:42 39.644312 -106.902185 303 6549ft 13kts
13-Oct-18 21:43 39.639379 -106.936329 260 7033ft 154kts
13-Oct-18 21:44 39.610639 -106.971889 223 9046ft 154kts
13-Oct-18 21:45 39.615093 -107.007881 338 10896ft 146kts
13-Oct-18 21:46 39.650589 -107.028439 332 12696ft 146kts
13-Oct-18 21:47 39.685857 -107.050618 331 14439ft 147kts
13-Oct-18 21:48 39.721151 -107.072863 330 16089ft 148kts
13-Oct-18 21:49 39.760327 -107.088172 23 17027ft 201kts
13-Oct-18 21:50 39.791242 -107.015917 58 17003ft 255kts
13-Oct-18 21:51 39.821611 -106.934652 60 17002ft 267kts
13-Oct-18 21:52 39.851291 -106.854521 61 17709ft 249kts
13-Oct-18 21:53 39.878703 -106.780438 63 18638ft 242kts
13-Oct-18 21:54 39.905525 -106.707421 63 19581ft 241kts
13-Oct-18 21:55 39.933145 -106.632298 62 20482ft 245kts
13-Oct-18 21:56 39.963031 -106.550814 62 20990ft 268kts
13-Oct-18 21:57 39.985349 -106.489833 62 20989ft 285kts
13-Oct-18 21:58 40.019560 -106.423231 32 20996ft 286kts
13-Oct-18 21:59 40.069061 -106.372583 33 20994ft 290kts
13-Oct-18 22:00 40.116654 -106.322741 34 20980ft 292kts
13-Oct-18 22:01 40.166047 -106.270696 34 20978ft 293kts
13-Oct-18 22:02 40.194817 -106.201991 112 20997ft 291kts
13-Oct-18 22:03 40.150557 -106.119851 135 20425ft 282kts
13-Oct-18 22:04 40.119908 -106.069202 133 19974ft 281kts
13-Oct-18 22:05 40.079515 -106.004724 135 19389ft 277kts
13-Oct-18 22:06 39.977031 -105.839930 134 17911ft 274kts
13-Oct-18 22:07 39.739833 -105.461173 133 14989ft 266kts
13-Oct-18 22:08 39.700682 -105.398912 133 14950ft 259kts
13-Oct-18 22:09 39.474452 -105.042727 133 9971ft 249kts
13-Oct-18 22:10 39.440491 -104.989342 133 9146ft 230kts
13-Oct-18 22:11 39.403790 -104.931943 134 8919ft 196kts
13-Oct-18 22:12 39.373332 -104.884848 127 8918ft 165kts
13-Oct-18 22:13 39.352825 -104.838643 75 8916ft 143kts
13-Oct-18 22:14 39.382960 -104.836593 347 8564ft 145kts
13-Oct-18 22:15 39.416101 -104.843764 2 8391ft 143kts
13-Oct-18 22:16 39.448592 -104.845392 6 8000ft 128kts
13-Oct-18 22:17 39.475421 -104.846599 7 7510ft 121kts
13-Oct-18 22:18 39.531766 -104.849194 8 6415ft 100kts
13-Oct-18 22:19 39.548465 -104.849882 9 6093ft 89kts
13-Oct-18 22:20 39.563186 -104.850520 21 5886ft 62kts
13-Oct-18 22:21 39.568136 -104.848199 47 5886ft 10kts
13-Oct-18 22:22 39.568298 -104.847538 84 5886ft 0kts
13-Oct-18 22:23 39.568298 -104.847539 84 5886ft 0kts
13-Oct-18 22:24 39.568298 -104.847539 84 5886ft 0kts

Navigation Log

Ident Type
Flight plan parsing failed, navigation log unavailable